sensor_id;sensor_type;location;lat;lon;timestamp;P1;durP1;ratioP1;P2;durP2;ratioP2
59830;SDS011;45711;50.108;13.712;2022-08-19T00:01:32;20.33;;;13.68;;
59830;SDS011;45711;50.108;13.712;2022-08-19T00:03:59;18.08;;;13.73;;
59830;SDS011;45711;50.108;13.712;2022-08-19T00:06:25;21.00;;;13.77;;
59830;SDS011;45711;50.108;13.712;2022-08-19T00:08:52;17.65;;;13.07;;
59830;SDS011;45711;50.108;13.712;2022-08-19T00:11:17;18.13;;;13.07;;
59830;SDS011;45711;50.108;13.712;2022-08-19T00:13:45;15.23;;;12.65;;
59830;SDS011;45711;50.108;13.712;2022-08-19T00:16:13;15.90;;;12.75;;
59830;SDS011;45711;50.108;13.712;2022-08-19T00:18:39;18.30;;;12.18;;
59830;SDS011;45711;50.108;13.712;2022-08-19T00:21:04;16.80;;;12.32;;
59830;SDS011;45711;50.108;13.712;2022-08-19T00:23:32;13.70;;;11.98;;
59830;SDS011;45711;50.108;13.712;2022-08-19T00:25:59;19.88;;;12.45;;
59830;SDS011;45711;50.108;13.712;2022-08-19T00:28:25;21.70;;;11.55;;
59830;SDS011;45711;50.108;13.712;2022-08-19T00:30:52;16.58;;;11.68;;
59830;SDS011;45711;50.108;13.712;2022-08-19T00:33:18;18.00;;;12.27;;
59830;SDS011;45711;50.108;13.712;2022-08-19T00:35:44;14.82;;;11.77;;
59830;SDS011;45711;50.108;13.712;2022-08-19T00:38:09;18.60;;;10.77;;
59830;SDS011;45711;50.108;13.712;2022-08-19T00:40:35;22.20;;;10.48;;
59830;SDS011;45711;50.108;13.712;2022-08-19T00:43:00;15.20;;;12.27;;
59830;SDS011;45711;50.108;13.712;2022-08-19T00:45:26;16.02;;;10.68;;
59830;SDS011;45711;50.108;13.712;2022-08-19T00:47:58;16.42;;;11.73;;
59830;SDS011;45711;50.108;13.712;2022-08-19T00:50:23;14.45;;;11.05;;
59830;SDS011;45711;50.108;13.712;2022-08-19T00:52:49;14.15;;;11.38;;
59830;SDS011;45711;50.108;13.712;2022-08-19T00:55:16;18.17;;;12.68;;
59830;SDS011;45711;50.108;13.712;2022-08-19T00:57:46;16.27;;;13.18;;
59830;SDS011;45711;50.108;13.712;2022-08-19T01:00:17;17.60;;;13.55;;
59830;SDS011;45711;50.108;13.712;2022-08-19T01:02:44;18.33;;;13.35;;
59830;SDS011;45711;50.108;13.712;2022-08-19T01:05:11;19.23;;;13.88;;
59830;SDS011;45711;50.108;13.712;2022-08-19T01:07:40;16.25;;;13.80;;
59830;SDS011;45711;50.108;13.712;2022-08-19T01:10:07;18.60;;;13.80;;
59830;SDS011;45711;50.108;13.712;2022-08-19T01:12:34;18.85;;;14.52;;
59830;SDS011;45711;50.108;13.712;2022-08-19T01:14:59;18.33;;;14.13;;
59830;SDS011;45711;50.108;13.712;2022-08-19T01:17:25;16.77;;;14.00;;
59830;SDS011;45711;50.108;13.712;2022-08-19T01:19:52;21.42;;;14.40;;
59830;SDS011;45711;50.108;13.712;2022-08-19T01:24:52;16.25;;;14.48;;
59830;SDS011;45711;50.108;13.712;2022-08-19T01:27:17;20.30;;;14.77;;
59830;SDS011;45711;50.108;13.712;2022-08-19T01:29:43;22.27;;;15.23;;
59830;SDS011;45711;50.108;13.712;2022-08-19T01:32:11;18.05;;;14.45;;
59830;SDS011;45711;50.108;13.712;2022-08-19T01:34:38;19.38;;;14.88;;
59830;SDS011;45711;50.108;13.712;2022-08-19T01:37:05;20.77;;;15.50;;
59830;SDS011;45711;50.108;13.712;2022-08-19T01:39:34;16.90;;;13.93;;
59830;SDS011;45711;50.108;13.712;2022-08-19T01:41:59;16.35;;;14.68;;
59830;SDS011;45711;50.108;13.712;2022-08-19T01:44:28;19.88;;;14.70;;
59830;SDS011;45711;50.108;13.712;2022-08-19T01:46:53;18.52;;;14.95;;
59830;SDS011;45711;50.108;13.712;2022-08-19T01:49:20;17.73;;;14.93;;
59830;SDS011;45711;50.108;13.712;2022-08-19T01:51:48;18.20;;;14.98;;
59830;SDS011;45711;50.108;13.712;2022-08-19T01:54:15;19.75;;;15.35;;
59830;SDS011;45711;50.108;13.712;2022-08-19T01:56:44;17.58;;;14.38;;
59830;SDS011;45711;50.108;13.712;2022-08-19T01:59:10;17.73;;;14.98;;
59830;SDS011;45711;50.108;13.712;2022-08-19T02:01:39;20.58;;;14.75;;
59830;SDS011;45711;50.108;13.712;2022-08-19T02:04:05;20.38;;;14.20;;
59830;SDS011;45711;50.108;13.712;2022-08-19T02:06:31;18.73;;;14.10;;
59830;SDS011;45711;50.108;13.712;2022-08-19T02:08:58;21.50;;;15.27;;
59830;SDS011;45711;50.108;13.712;2022-08-19T02:11:25;21.58;;;14.15;;
59830;SDS011;45711;50.108;13.712;2022-08-19T02:13:54;18.55;;;15.00;;
59830;SDS011;45711;50.108;13.712;2022-08-19T02:16:20;24.80;;;15.52;;
59830;SDS011;45711;50.108;13.712;2022-08-19T02:18:46;18.25;;;14.45;;
59830;SDS011;45711;50.108;13.712;2022-08-19T02:21:13;18.08;;;14.55;;
59830;SDS011;45711;50.108;13.712;2022-08-19T02:23:40;16.38;;;14.52;;
59830;SDS011;45711;50.108;13.712;2022-08-19T02:26:06;17.40;;;14.20;;
59830;SDS011;45711;50.108;13.712;2022-08-19T02:28:31;16.75;;;14.95;;
59830;SDS011;45711;50.108;13.712;2022-08-19T02:30:58;19.00;;;14.23;;
59830;SDS011;45711;50.108;13.712;2022-08-19T02:33:25;18.48;;;14.27;;
59830;SDS011;45711;50.108;13.712;2022-08-19T02:35:51;19.92;;;15.18;;
59830;SDS011;45711;50.108;13.712;2022-08-19T02:38:16;16.85;;;14.43;;
59830;SDS011;45711;50.108;13.712;2022-08-19T02:40:51;19.90;;;13.98;;
59830;SDS011;45711;50.108;13.712;2022-08-19T02:43:19;16.70;;;13.80;;
59830;SDS011;45711;50.108;13.712;2022-08-19T02:45:45;17.48;;;14.52;;
59830;SDS011;45711;50.108;13.712;2022-08-19T02:48:14;18.10;;;13.82;;
59830;SDS011;45711;50.108;13.712;2022-08-19T02:50:41;18.63;;;14.95;;
59830;SDS011;45711;50.108;13.712;2022-08-19T02:53:06;16.42;;;14.25;;
59830;SDS011;45711;50.108;13.712;2022-08-19T02:55:33;18.85;;;14.48;;
59830;SDS011;45711;50.108;13.712;2022-08-19T02:57:58;23.88;;;15.35;;
59830;SDS011;45711;50.108;13.712;2022-08-19T03:00:24;21.10;;;16.60;;
59830;SDS011;45711;50.108;13.712;2022-08-19T03:02:51;24.95;;;15.90;;
59830;SDS011;45711;50.108;13.712;2022-08-19T03:05:18;17.85;;;15.38;;
59830;SDS011;45711;50.108;13.712;2022-08-19T03:07:44;25.58;;;16.90;;
59830;SDS011;45711;50.108;13.712;2022-08-19T03:10:12;22.17;;;16.58;;
59830;SDS011;45711;50.108;13.712;2022-08-19T03:12:38;21.08;;;16.73;;
59830;SDS011;45711;50.108;13.712;2022-08-19T03:15:04;21.08;;;16.88;;
59830;SDS011;45711;50.108;13.712;2022-08-19T03:17:32;21.92;;;16.13;;
59830;SDS011;45711;50.108;13.712;2022-08-19T03:19:58;20.92;;;16.73;;
59830;SDS011;45711;50.108;13.712;2022-08-19T03:22:25;21.30;;;16.83;;
59830;SDS011;45711;50.108;13.712;2022-08-19T03:24:50;19.63;;;17.00;;
59830;SDS011;45711;50.108;13.712;2022-08-19T03:27:16;20.77;;;16.92;;
59830;SDS011;45711;50.108;13.712;2022-08-19T03:29:43;25.45;;;18.77;;
59830;SDS011;45711;50.108;13.712;2022-08-19T03:32:09;35.67;;;21.70;;
59830;SDS011;45711;50.108;13.712;2022-08-19T03:34:36;26.58;;;20.77;;
59830;SDS011;45711;50.108;13.712;2022-08-19T03:37:03;27.17;;;21.98;;
59830;SDS011;45711;50.108;13.712;2022-08-19T03:39:32;32.58;;;21.23;;
59830;SDS011;45711;50.108;13.712;2022-08-19T03:42:00;27.67;;;20.60;;
59830;SDS011;45711;50.108;13.712;2022-08-19T03:44:27;24.05;;;19.70;;
59830;SDS011;45711;50.108;13.712;2022-08-19T03:46:55;24.35;;;19.35;;
59830;SDS011;45711;50.108;13.712;2022-08-19T03:49:22;26.33;;;21.08;;
59830;SDS011;45711;50.108;13.712;2022-08-19T03:51:49;25.33;;;19.70;;
59830;SDS011;45711;50.108;13.712;2022-08-19T03:54:16;36.38;;;21.65;;
59830;SDS011;45711;50.108;13.712;2022-08-19T03:56:44;25.67;;;20.30;;
59830;SDS011;45711;50.108;13.712;2022-08-19T03:59:13;30.08;;;20.63;;
59830;SDS011;45711;50.108;13.712;2022-08-19T04:01:40;25.02;;;20.80;;
59830;SDS011;45711;50.108;13.712;2022-08-19T04:04:06;28.45;;;21.70;;
59830;SDS011;45711;50.108;13.712;2022-08-19T04:06:32;27.48;;;22.15;;
59830;SDS011;45711;50.108;13.712;2022-08-19T04:09:00;29.50;;;21.77;;
59830;SDS011;45711;50.108;13.712;2022-08-19T04:11:28;30.25;;;22.75;;
59830;SDS011;45711;50.108;13.712;2022-08-19T04:13:56;31.02;;;23.05;;
59830;SDS011;45711;50.108;13.712;2022-08-19T04:16:23;30.30;;;24.20;;
59830;SDS011;45711;50.108;13.712;2022-08-19T04:18:53;26.00;;;21.38;;
59830;SDS011;45711;50.108;13.712;2022-08-19T04:21:20;27.52;;;22.65;;
59830;SDS011;45711;50.108;13.712;2022-08-19T04:23:47;24.60;;;21.67;;
59830;SDS011;45711;50.108;13.712;2022-08-19T04:26:13;24.48;;;20.92;;
59830;SDS011;45711;50.108;13.712;2022-08-19T04:28:39;22.73;;;19.42;;
59830;SDS011;45711;50.108;13.712;2022-08-19T04:31:06;25.70;;;20.15;;
59830;SDS011;45711;50.108;13.712;2022-08-19T04:33:39;30.13;;;20.77;;
59830;SDS011;45711;50.108;13.712;2022-08-19T04:36:04;23.33;;;20.83;;
59830;SDS011;45711;50.108;13.712;2022-08-19T04:38:30;24.48;;;20.92;;
59830;SDS011;45711;50.108;13.712;2022-08-19T04:40:56;27.45;;;20.58;;
59830;SDS011;45711;50.108;13.712;2022-08-19T04:43:40;30.50;;;21.02;;
59830;SDS011;45711;50.108;13.712;2022-08-19T04:46:07;25.85;;;20.83;;
59830;SDS011;45711;50.108;13.712;2022-08-19T04:48:35;24.77;;;20.27;;
59830;SDS011;45711;50.108;13.712;2022-08-19T04:51:05;23.65;;;20.15;;
59830;SDS011;45711;50.108;13.712;2022-08-19T04:53:33;28.83;;;21.15;;
59830;SDS011;45711;50.108;13.712;2022-08-19T04:56:04;25.45;;;22.70;;
59830;SDS011;45711;50.108;13.712;2022-08-19T04:58:37;29.40;;;22.05;;
59830;SDS011;45711;50.108;13.712;2022-08-19T05:01:04;31.17;;;22.90;;
59830;SDS011;45711;50.108;13.712;2022-08-19T05:03:31;26.08;;;21.77;;
59830;SDS011;45711;50.108;13.712;2022-08-19T05:05:58;32.38;;;22.13;;
59830;SDS011;45711;50.108;13.712;2022-08-19T05:08:30;29.02;;;22.90;;
59830;SDS011;45711;50.108;13.712;2022-08-19T05:10:55;27.35;;;19.83;;
59830;SDS011;45711;50.108;13.712;2022-08-19T05:13:22;25.20;;;20.35;;
59830;SDS011;45711;50.108;13.712;2022-08-19T05:15:52;25.90;;;19.13;;
59830;SDS011;45711;50.108;13.712;2022-08-19T05:18:19;22.08;;;18.90;;
59830;SDS011;45711;50.108;13.712;2022-08-19T05:21:06;23.13;;;16.70;;
59830;SDS011;45711;50.108;13.712;2022-08-19T05:23:51;28.85;;;19.40;;
59830;SDS011;45711;50.108;13.712;2022-08-19T05:26:17;28.15;;;18.75;;
59830;SDS011;45711;50.108;13.712;2022-08-19T05:28:42;28.92;;;18.17;;
59830;SDS011;45711;50.108;13.712;2022-08-19T05:31:08;23.13;;;14.85;;
59830;SDS011;45711;50.108;13.712;2022-08-19T05:33:34;28.08;;;18.13;;
59830;SDS011;45711;50.108;13.712;2022-08-19T05:36:00;29.27;;;17.90;;
59830;SDS011;45711;50.108;13.712;2022-08-19T05:38:30;21.33;;;16.33;;
59830;SDS011;45711;50.108;13.712;2022-08-19T05:40:55;18.02;;;14.68;;
59830;SDS011;45711;50.108;13.712;2022-08-19T05:43:21;21.08;;;15.95;;
59830;SDS011;45711;50.108;13.712;2022-08-19T05:45:47;22.50;;;17.23;;
59830;SDS011;45711;50.108;13.712;2022-08-19T05:48:12;24.42;;;15.02;;
59830;SDS011;45711;50.108;13.712;2022-08-19T05:50:39;22.85;;;15.45;;
59830;SDS011;45711;50.108;13.712;2022-08-19T05:53:06;19.15;;;15.52;;
59830;SDS011;45711;50.108;13.712;2022-08-19T05:55:33;18.50;;;16.13;;
59830;SDS011;45711;50.108;13.712;2022-08-19T05:57:59;24.33;;;17.83;;
59830;SDS011;45711;50.108;13.712;2022-08-19T06:00:26;23.45;;;17.38;;
59830;SDS011;45711;50.108;13.712;2022-08-19T06:02:52;23.27;;;18.98;;
59830;SDS011;45711;50.108;13.712;2022-08-19T06:05:19;22.20;;;18.30;;
59830;SDS011;45711;50.108;13.712;2022-08-19T06:07:50;24.67;;;19.10;;
59830;SDS011;45711;50.108;13.712;2022-08-19T06:10:16;19.67;;;17.58;;
59830;SDS011;45711;50.108;13.712;2022-08-19T06:12:54;26.45;;;17.13;;
59830;SDS011;45711;50.108;13.712;2022-08-19T06:15:21;19.40;;;15.93;;
59830;SDS011;45711;50.108;13.712;2022-08-19T06:17:56;19.73;;;15.90;;
59830;SDS011;45711;50.108;13.712;2022-08-19T06:20:21;15.77;;;14.18;;
59830;SDS011;45711;50.108;13.712;2022-08-19T06:22:48;18.83;;;14.55;;
59830;SDS011;45711;50.108;13.712;2022-08-19T06:25:15;18.65;;;14.45;;
59830;SDS011;45711;50.108;13.712;2022-08-19T06:27:42;17.50;;;13.13;;
59830;SDS011;45711;50.108;13.712;2022-08-19T06:30:10;15.10;;;12.80;;
59830;SDS011;45711;50.108;13.712;2022-08-19T06:32:37;15.30;;;12.05;;
59830;SDS011;45711;50.108;13.712;2022-08-19T06:35:03;18.02;;;12.70;;
59830;SDS011;45711;50.108;13.712;2022-08-19T06:37:29;16.48;;;11.68;;
59830;SDS011;45711;50.108;13.712;2022-08-19T06:39:55;13.07;;;11.75;;
59830;SDS011;45711;50.108;13.712;2022-08-19T06:42:21;14.48;;;11.57;;
59830;SDS011;45711;50.108;13.712;2022-08-19T06:44:47;18.23;;;11.88;;
59830;SDS011;45711;50.108;13.712;2022-08-19T06:47:16;12.98;;;10.32;;
59830;SDS011;45711;50.108;13.712;2022-08-19T06:49:43;10.52;;;9.32;;
59830;SDS011;45711;50.108;13.712;2022-08-19T06:52:09;10.90;;;8.57;;
59830;SDS011;45711;50.108;13.712;2022-08-19T06:54:37;11.15;;;8.65;;
59830;SDS011;45711;50.108;13.712;2022-08-19T06:57:04;13.02;;;8.80;;
59830;SDS011;45711;50.108;13.712;2022-08-19T06:59:31;16.35;;;8.40;;
59830;SDS011;45711;50.108;13.712;2022-08-19T07:01:58;10.45;;;7.93;;
59830;SDS011;45711;50.108;13.712;2022-08-19T07:04:28;11.98;;;8.52;;
59830;SDS011;45711;50.108;13.712;2022-08-19T07:06:59;10.20;;;8.18;;
59830;SDS011;45711;50.108;13.712;2022-08-19T07:09:26;10.77;;;7.43;;
59830;SDS011;45711;50.108;13.712;2022-08-19T07:11:52;7.72;;;6.80;;
59830;SDS011;45711;50.108;13.712;2022-08-19T07:14:19;7.20;;;6.50;;
59830;SDS011;45711;50.108;13.712;2022-08-19T07:16:47;8.60;;;6.65;;
59830;SDS011;45711;50.108;13.712;2022-08-19T07:19:15;7.47;;;6.28;;
59830;SDS011;45711;50.108;13.712;2022-08-19T07:21:42;10.57;;;6.93;;
59830;SDS011;45711;50.108;13.712;2022-08-19T07:24:08;9.63;;;6.95;;
59830;SDS011;45711;50.108;13.712;2022-08-19T07:26:37;8.15;;;6.72;;
59830;SDS011;45711;50.108;13.712;2022-08-19T07:29:04;9.13;;;6.82;;
59830;SDS011;45711;50.108;13.712;2022-08-19T07:31:30;9.73;;;7.10;;
59830;SDS011;45711;50.108;13.712;2022-08-19T07:33:57;12.07;;;6.80;;
59830;SDS011;45711;50.108;13.712;2022-08-19T07:36:23;14.93;;;7.25;;
59830;SDS011;45711;50.108;13.712;2022-08-19T07:38:57;11.75;;;7.32;;
59830;SDS011;45711;50.108;13.712;2022-08-19T07:41:25;10.27;;;7.00;;
59830;SDS011;45711;50.108;13.712;2022-08-19T07:43:53;10.18;;;7.55;;
59830;SDS011;45711;50.108;13.712;2022-08-19T07:46:19;10.88;;;7.40;;
59830;SDS011;45711;50.108;13.712;2022-08-19T07:48:45;8.38;;;7.38;;
59830;SDS011;45711;50.108;13.712;2022-08-19T07:51:13;8.68;;;7.00;;
59830;SDS011;45711;50.108;13.712;2022-08-19T07:53:40;11.18;;;7.07;;
59830;SDS011;45711;50.108;13.712;2022-08-19T07:56:07;7.93;;;6.53;;
59830;SDS011;45711;50.108;13.712;2022-08-19T07:58:37;7.57;;;6.75;;
59830;SDS011;45711;50.108;13.712;2022-08-19T08:01:07;8.60;;;6.90;;
59830;SDS011;45711;50.108;13.712;2022-08-19T08:03:35;7.65;;;6.93;;
59830;SDS011;45711;50.108;13.712;2022-08-19T08:06:20;7.53;;;6.57;;
59830;SDS011;45711;50.108;13.712;2022-08-19T08:09:05;9.15;;;6.55;;
59830;SDS011;45711;50.108;13.712;2022-08-19T08:11:42;8.68;;;6.10;;
59830;SDS011;45711;50.108;13.712;2022-08-19T08:14:15;10.02;;;6.00;;
59830;SDS011;45711;50.108;13.712;2022-08-19T08:16:42;13.60;;;6.43;;
59830;SDS011;45711;50.108;13.712;2022-08-19T08:19:09;10.25;;;6.15;;
59830;SDS011;45711;50.108;13.712;2022-08-19T08:21:35;10.07;;;6.30;;
59830;SDS011;45711;50.108;13.712;2022-08-19T08:24:01;9.85;;;6.28;;
59830;SDS011;45711;50.108;13.712;2022-08-19T08:26:27;9.27;;;6.40;;
59830;SDS011;45711;50.108;13.712;2022-08-19T08:28:54;8.98;;;5.97;;
59830;SDS011;45711;50.108;13.712;2022-08-19T08:31:20;8.77;;;6.65;;
59830;SDS011;45711;50.108;13.712;2022-08-19T08:33:45;8.55;;;6.50;;
59830;SDS011;45711;50.108;13.712;2022-08-19T08:36:12;11.10;;;6.82;;
59830;SDS011;45711;50.108;13.712;2022-08-19T08:38:39;8.75;;;6.50;;
59830;SDS011;45711;50.108;13.712;2022-08-19T08:41:07;8.68;;;6.35;;
59830;SDS011;45711;50.108;13.712;2022-08-19T08:43:44;6.38;;;5.78;;
59830;SDS011;45711;50.108;13.712;2022-08-19T08:46:13;7.82;;;6.82;;
59830;SDS011;45711;50.108;13.712;2022-08-19T08:48:44;9.65;;;6.70;;
59830;SDS011;45711;50.108;13.712;2022-08-19T08:51:15;8.30;;;6.05;;
59830;SDS011;45711;50.108;13.712;2022-08-19T08:53:48;8.48;;;6.10;;
59830;SDS011;45711;50.108;13.712;2022-08-19T08:56:16;9.15;;;6.30;;
59830;SDS011;45711;50.108;13.712;2022-08-19T08:58:45;7.25;;;5.93;;
59830;SDS011;45711;50.108;13.712;2022-08-19T09:01:17;9.18;;;6.15;;
59830;SDS011;45711;50.108;13.712;2022-08-19T09:03:44;7.65;;;6.38;;
59830;SDS011;45711;50.108;13.712;2022-08-19T09:06:12;8.75;;;6.32;;
59830;SDS011;45711;50.108;13.712;2022-08-19T09:11:24;7.95;;;5.95;;
59830;SDS011;45711;50.108;13.712;2022-08-19T09:14:08;9.77;;;6.60;;
59830;SDS011;45711;50.108;13.712;2022-08-19T09:16:42;6.72;;;6.03;;
59830;SDS011;45711;50.108;13.712;2022-08-19T09:19:08;7.45;;;6.32;;
59830;SDS011;45711;50.108;13.712;2022-08-19T09:21:35;10.13;;;6.63;;
59830;SDS011;45711;50.108;13.712;2022-08-19T09:24:02;10.20;;;6.15;;
59830;SDS011;45711;50.108;13.712;2022-08-19T09:26:29;10.93;;;6.15;;
59830;SDS011;45711;50.108;13.712;2022-08-19T09:28:57;9.48;;;6.60;;
59830;SDS011;45711;50.108;13.712;2022-08-19T09:31:25;7.03;;;6.32;;
59830;SDS011;45711;50.108;13.712;2022-08-19T09:33:53;9.95;;;7.15;;
59830;SDS011;45711;50.108;13.712;2022-08-19T09:36:22;9.57;;;6.53;;
59830;SDS011;45711;50.108;13.712;2022-08-19T09:38:50;10.18;;;6.25;;
59830;SDS011;45711;50.108;13.712;2022-08-19T09:41:18;7.55;;;6.15;;
59830;SDS011;45711;50.108;13.712;2022-08-19T09:43:47;7.97;;;6.57;;
59830;SDS011;45711;50.108;13.712;2022-08-19T09:46:17;7.82;;;6.00;;
59830;SDS011;45711;50.108;13.712;2022-08-19T09:48:46;6.88;;;6.18;;
59830;SDS011;45711;50.108;13.712;2022-08-19T09:51:15;6.93;;;6.22;;
59830;SDS011;45711;50.108;13.712;2022-08-19T09:53:44;11.15;;;6.95;;
59830;SDS011;45711;50.108;13.712;2022-08-19T09:56:11;6.70;;;6.00;;
59830;SDS011;45711;50.108;13.712;2022-08-19T09:58:38;9.60;;;6.40;;
59830;SDS011;45711;50.108;13.712;2022-08-19T10:01:05;7.07;;;6.38;;
59830;SDS011;45711;50.108;13.712;2022-08-19T10:03:32;6.97;;;6.25;;
59830;SDS011;45711;50.108;13.712;2022-08-19T10:05:59;9.73;;;6.07;;
59830;SDS011;45711;50.108;13.712;2022-08-19T10:08:29;8.75;;;6.43;;
59830;SDS011;45711;50.108;13.712;2022-08-19T10:10:55;6.85;;;5.85;;
59830;SDS011;45711;50.108;13.712;2022-08-19T10:13:23;6.90;;;6.20;;
59830;SDS011;45711;50.108;13.712;2022-08-19T10:15:51;9.73;;;6.10;;
59830;SDS011;45711;50.108;13.712;2022-08-19T10:18:19;7.38;;;6.00;;
59830;SDS011;45711;50.108;13.712;2022-08-19T10:20:46;7.57;;;6.43;;
59830;SDS011;45711;50.108;13.712;2022-08-19T10:23:13;9.00;;;5.93;;
59830;SDS011;45711;50.108;13.712;2022-08-19T10:25:41;7.93;;;5.93;;
59830;SDS011;45711;50.108;13.712;2022-08-19T10:28:08;8.32;;;6.22;;
59830;SDS011;45711;50.108;13.712;2022-08-19T10:30:37;9.60;;;6.28;;
59830;SDS011;45711;50.108;13.712;2022-08-19T10:33:03;8.90;;;5.47;;
59830;SDS011;45711;50.108;13.712;2022-08-19T10:35:29;7.68;;;5.88;;
59830;SDS011;45711;50.108;13.712;2022-08-19T10:37:55;6.38;;;5.75;;
59830;SDS011;45711;50.108;13.712;2022-08-19T10:40:26;14.75;;;5.63;;
59830;SDS011;45711;50.108;13.712;2022-08-19T10:42:54;6.40;;;5.78;;
59830;SDS011;45711;50.108;13.712;2022-08-19T10:45:21;6.97;;;5.32;;
59830;SDS011;45711;50.108;13.712;2022-08-19T10:47:51;10.55;;;5.65;;
59830;SDS011;45711;50.108;13.712;2022-08-19T10:50:17;7.22;;;5.22;;
59830;SDS011;45711;50.108;13.712;2022-08-19T10:53:03;8.27;;;6.35;;
59830;SDS011;45711;50.108;13.712;2022-08-19T10:55:30;6.18;;;5.45;;
59830;SDS011;45711;50.108;13.712;2022-08-19T10:58:16;6.82;;;6.00;;
59830;SDS011;45711;50.108;13.712;2022-08-19T11:00:50;10.40;;;6.57;;
59830;SDS011;45711;50.108;13.712;2022-08-19T11:03:18;11.27;;;5.28;;
59830;SDS011;45711;50.108;13.712;2022-08-19T11:05:43;7.60;;;4.97;;
59830;SDS011;45711;50.108;13.712;2022-08-19T11:08:09;12.07;;;5.28;;
59830;SDS011;45711;50.108;13.712;2022-08-19T11:10:40;7.97;;;6.35;;
59830;SDS011;45711;50.108;13.712;2022-08-19T11:13:06;8.82;;;5.35;;
59830;SDS011;45711;50.108;13.712;2022-08-19T11:15:33;9.13;;;6.20;;
59830;SDS011;45711;50.108;13.712;2022-08-19T11:17:59;5.55;;;4.90;;
59830;SDS011;45711;50.108;13.712;2022-08-19T11:20:24;8.85;;;5.57;;
59830;SDS011;45711;50.108;13.712;2022-08-19T11:22:51;5.85;;;5.25;;
59830;SDS011;45711;50.108;13.712;2022-08-19T11:25:18;7.45;;;5.93;;
59830;SDS011;45711;50.108;13.712;2022-08-19T11:27:43;6.22;;;5.15;;
59830;SDS011;45711;50.108;13.712;2022-08-19T11:30:10;7.07;;;6.20;;
59830;SDS011;45711;50.108;13.712;2022-08-19T11:32:39;6.95;;;5.53;;
59830;SDS011;45711;50.108;13.712;2022-08-19T11:35:05;10.90;;;5.38;;
59830;SDS011;45711;50.108;13.712;2022-08-19T11:37:31;7.40;;;5.30;;
59830;SDS011;45711;50.108;13.712;2022-08-19T11:40:02;9.77;;;6.10;;
59830;SDS011;45711;50.108;13.712;2022-08-19T11:42:28;9.35;;;6.25;;
59830;SDS011;45711;50.108;13.712;2022-08-19T11:45:12;12.95;;;7.07;;
59830;SDS011;45711;50.108;13.712;2022-08-19T11:47:40;7.38;;;6.65;;
59830;SDS011;45711;50.108;13.712;2022-08-19T11:50:06;11.20;;;6.97;;
59830;SDS011;45711;50.108;13.712;2022-08-19T11:52:32;7.70;;;6.60;;
59830;SDS011;45711;50.108;13.712;2022-08-19T11:54:57;11.30;;;7.40;;
59830;SDS011;45711;50.108;13.712;2022-08-19T11:57:23;11.98;;;7.43;;
59830;SDS011;45711;50.108;13.712;2022-08-19T11:59:49;8.45;;;7.38;;
59830;SDS011;45711;50.108;13.712;2022-08-19T12:02:14;12.70;;;7.50;;
59830;SDS011;45711;50.108;13.712;2022-08-19T12:04:41;11.63;;;7.63;;
59830;SDS011;45711;50.108;13.712;2022-08-19T12:07:07;12.57;;;7.78;;
59830;SDS011;45711;50.108;13.712;2022-08-19T12:09:32;9.02;;;7.90;;
59830;SDS011;45711;50.108;13.712;2022-08-19T12:11:59;8.05;;;7.10;;
59830;SDS011;45711;50.108;13.712;2022-08-19T12:14:25;9.68;;;7.47;;
59830;SDS011;45711;50.108;13.712;2022-08-19T12:16:52;13.63;;;7.60;;
59830;SDS011;45711;50.108;13.712;2022-08-19T12:19:18;12.80;;;7.90;;
59830;SDS011;45711;50.108;13.712;2022-08-19T12:21:46;8.25;;;7.35;;
59830;SDS011;45711;50.108;13.712;2022-08-19T12:24:11;8.60;;;7.40;;
59830;SDS011;45711;50.108;13.712;2022-08-19T12:26:37;9.63;;;7.50;;
59830;SDS011;45711;50.108;13.712;2022-08-19T12:29:02;10.68;;;7.75;;
59830;SDS011;45711;50.108;13.712;2022-08-19T12:31:29;11.18;;;8.10;;
59830;SDS011;45711;50.108;13.712;2022-08-19T12:33:54;10.32;;;7.82;;
59830;SDS011;45711;50.108;13.712;2022-08-19T12:36:20;10.07;;;7.78;;
59830;SDS011;45711;50.108;13.712;2022-08-19T12:38:48;9.98;;;7.22;;
59830;SDS011;45711;50.108;13.712;2022-08-19T12:41:15;9.05;;;7.70;;
59830;SDS011;45711;50.108;13.712;2022-08-19T12:43:43;8.38;;;7.00;;
59830;SDS011;45711;50.108;13.712;2022-08-19T12:46:09;13.60;;;8.23;;
59830;SDS011;45711;50.108;13.712;2022-08-19T12:48:35;9.88;;;8.15;;
59830;SDS011;45711;50.108;13.712;2022-08-19T12:51:06;9.88;;;8.00;;
59830;SDS011;45711;50.108;13.712;2022-08-19T12:53:33;13.13;;;8.02;;
59830;SDS011;45711;50.108;13.712;2022-08-19T12:56:00;9.98;;;7.38;;
59830;SDS011;45711;50.108;13.712;2022-08-19T12:58:25;10.95;;;7.88;;
59830;SDS011;45711;50.108;13.712;2022-08-19T13:00:52;10.40;;;8.27;;
59830;SDS011;45711;50.108;13.712;2022-08-19T13:03:18;13.57;;;8.15;;
59830;SDS011;45711;50.108;13.712;2022-08-19T13:05:43;11.65;;;8.18;;
59830;SDS011;45711;50.108;13.712;2022-08-19T13:08:09;10.00;;;8.30;;
59830;SDS011;45711;50.108;13.712;2022-08-19T13:10:36;11.82;;;8.38;;
59830;SDS011;45711;50.108;13.712;2022-08-19T13:13:05;9.23;;;8.20;;
59830;SDS011;45711;50.108;13.712;2022-08-19T13:15:32;9.52;;;8.27;;
59830;SDS011;45711;50.108;13.712;2022-08-19T13:17:59;11.07;;;8.25;;
59830;SDS011;45711;50.108;13.712;2022-08-19T13:20:25;12.32;;;8.40;;
59830;SDS011;45711;50.108;13.712;2022-08-19T13:22:51;8.80;;;7.90;;
59830;SDS011;45711;50.108;13.712;2022-08-19T13:25:17;9.68;;;8.70;;
59830;SDS011;45711;50.108;13.712;2022-08-19T13:27:44;9.68;;;8.40;;
59830;SDS011;45711;50.108;13.712;2022-08-19T13:30:13;9.18;;;8.23;;
59830;SDS011;45711;50.108;13.712;2022-08-19T13:32:59;10.27;;;8.70;;
59830;SDS011;45711;50.108;13.712;2022-08-19T13:35:40;9.63;;;8.63;;
59830;SDS011;45711;50.108;13.712;2022-08-19T13:38:08;8.73;;;7.72;;
59830;SDS011;45711;50.108;13.712;2022-08-19T13:40:35;9.18;;;7.95;;
59830;SDS011;45711;50.108;13.712;2022-08-19T13:43:02;12.25;;;7.88;;
59830;SDS011;45711;50.108;13.712;2022-08-19T13:45:31;10.18;;;8.38;;
59830;SDS011;45711;50.108;13.712;2022-08-19T13:48:01;9.43;;;7.88;;
59830;SDS011;45711;50.108;13.712;2022-08-19T13:50:31;8.90;;;8.00;;
59830;SDS011;45711;50.108;13.712;2022-08-19T13:52:58;11.05;;;8.90;;
59830;SDS011;45711;50.108;13.712;2022-08-19T13:55:24;10.45;;;8.20;;
59830;SDS011;45711;50.108;13.712;2022-08-19T13:57:51;12.00;;;8.88;;
59830;SDS011;45711;50.108;13.712;2022-08-19T14:00:18;8.15;;;7.22;;
59830;SDS011;45711;50.108;13.712;2022-08-19T14:02:46;11.30;;;6.65;;
59830;SDS011;45711;50.108;13.712;2022-08-19T14:05:15;10.57;;;8.00;;
59830;SDS011;45711;50.108;13.712;2022-08-19T14:07:41;9.73;;;6.25;;
59830;SDS011;45711;50.108;13.712;2022-08-19T14:10:08;10.55;;;6.82;;
59830;SDS011;45711;50.108;13.712;2022-08-19T14:12:35;9.80;;;6.68;;
59830;SDS011;45711;50.108;13.712;2022-08-19T14:15:02;10.65;;;7.18;;
59830;SDS011;45711;50.108;13.712;2022-08-19T14:17:28;11.27;;;6.65;;
59830;SDS011;45711;50.108;13.712;2022-08-19T14:19:57;9.68;;;6.57;;
59830;SDS011;45711;50.108;13.712;2022-08-19T14:22:23;9.32;;;7.93;;
59830;SDS011;45711;50.108;13.712;2022-08-19T14:24:49;9.30;;;7.72;;
59830;SDS011;45711;50.108;13.712;2022-08-19T14:27:15;10.23;;;7.47;;
59830;SDS011;45711;50.108;13.712;2022-08-19T14:29:41;11.50;;;7.97;;